Time;durP1;ratioP1;P1;durP2;ratioP2;P2;SDS_P1;SDS_P2;PMS_P1;PMS_P2;Temp;Humidity;BMP_temperature;BMP_pressure;BME280_temperature;BME280_humidity;BME280_pressure;Samples;Min_cycle;Max_cycle;Signal;HPM_P1;HPM_P2
2022/10/18 00:01:16;;;;;;;;;70.40;53.40;;;;;;;;5165212;28;8827;-74
2022/10/18 00:03:47;;;;;;;;;58.60;49.40;;;;;;;;5149017;28;8796;-74
2022/10/18 00:06:18;;;;;;;;;26.00;25.80;;;;;;;;5149044;28;8792;-74
2022/10/18 00:08:49;;;;;;;;;11.20;11.20;;;;;;;;5149342;28;8791;-74
2022/10/18 00:11:20;;;;;;;;;15.40;15.40;;;;;;;;5133118;28;8784;-74
2022/10/18 00:13:51;;;;;;;;;15.00;14.80;;;;;;;;5181062;28;8791;-74
2022/10/18 00:16:23;;;;;;;;;11.40;11.40;;;;;;;;5165239;28;8788;-74
2022/10/18 00:18:54;;;;;;;;;19.40;18.20;;;;;;;;5164508;28;8784;-74
2022/10/18 00:21:43;;;;;;;;;14.80;14.80;;;;;;;;5178979;28;8790;-74
2022/10/18 00:24:14;;;;;;;;;14.00;14.00;;;;;;;;5164991;28;8885;-76
2022/10/18 00:27:05;;;;;;;;;15.80;15.80;;;;;;;;5144792;28;8802;-75
2022/10/18 00:29:36;;;;;;;;;17.40;17.40;;;;;;;;5128530;28;8802;-73
2022/10/18 00:32:08;;;;;;;;;13.40;13.40;;;;;;;;5144731;28;8807;-75
2022/10/18 00:34:39;;;;;;;;;13.80;13.60;;;;;;;;5161107;28;9541;-74
2022/10/18 00:37:11;;;;;;;;;11.00;11.00;;;;;;;;5147882;28;8825;-73
2022/10/18 00:39:43;;;;;;;;;14.60;14.20;;;;;;;;5132559;28;8800;-75
2022/10/18 00:42:18;;;;;;;;;10.60;10.60;;;;;;;;5148588;28;8787;-75
2022/10/18 00:44:50;;;;;;;;;12.40;12.40;;;;;;;;5180210;28;8799;-75
2022/10/18 00:47:21;;;;;;;;;10.40;10.40;;;;;;;;5148621;28;9475;-75
2022/10/18 00:50:11;;;;;;;;;13.80;13.80;;;;;;;;5150766;28;8775;-75
2022/10/18 00:52:44;;;;;;;;;7.00;7.00;;;;;;;;5164486;28;8787;-75
2022/10/18 00:55:16;;;;;;;;;10.20;10.20;;;;;;;;5148114;28;8776;-77
2022/10/18 00:57:48;;;;;;;;;10.00;10.00;;;;;;;;5147897;28;9572;-77
2022/10/18 01:00:20;;;;;;;;;7.80;7.80;;;;;;;;5148091;28;8807;-75
2022/10/18 01:02:52;;;;;;;;;8.80;8.80;;;;;;;;5179404;28;8926;-75
2022/10/18 01:05:24;;;;;;;;;9.20;9.20;;;;;;;;5164179;28;9482;-75
2022/10/18 01:08:19;;;;;;;;;12.00;12.00;;;;;;;;5148404;28;8878;-75
2022/10/18 01:10:56;;;;;;;;;14.20;14.20;;;;;;;;5138041;28;8775;-75
2022/10/18 01:13:51;;;;;;;;;13.00;13.00;;;;;;;;5163705;28;8788;-75
2022/10/18 01:16:23;;;;;;;;;17.80;17.20;;;;;;;;5163862;28;8798;-76
2022/10/18 01:19:21;;;;;;;;;12.80;12.20;;;;;;;;5163749;28;8788;-76
2022/10/18 01:21:56;;;;;;;;;10.40;10.40;;;;;;;;5144674;28;8775;-75
2022/10/18 01:24:33;;;;;;;;;14.80;14.80;;;;;;;;5163528;28;8795;-74
2022/10/18 01:27:05;;;;;;;;;22.80;22.80;;;;;;;;5132383;28;8819;-73
2022/10/18 01:29:56;;;;;;;;;16.40;16.20;;;;;;;;5131783;28;8763;-72
2022/10/18 01:32:31;;;;;;;;;17.20;17.20;;;;;;;;5163931;28;8780;-72
2022/10/18 01:35:05;;;;;;;;;29.40;29.40;;;;;;;;5147692;28;8779;-73
2022/10/18 01:37:38;;;;;;;;;28.20;25.40;;;;;;;;5146966;28;8946;-72
2022/10/18 01:40:11;;;;;;;;;24.80;24.60;;;;;;;;5130944;28;8787;-74
2022/10/18 01:42:44;;;;;;;;;12.60;12.60;;;;;;;;5178278;28;8943;-74
2022/10/18 01:45:17;;;;;;;;;10.00;10.00;;;;;;;;5163565;28;8918;-73
2022/10/18 01:47:49;;;;;;;;;14.80;14.80;;;;;;;;5163415;28;8783;-75
2022/10/18 01:50:28;;;;;;;;;11.60;10.80;;;;;;;;5179517;28;8810;-75
2022/10/18 01:53:26;;;;;;;;;10.80;10.80;;;;;;;;5163572;28;8800;-75
2022/10/18 01:56:09;;;;;;;;;12.00;12.00;;;;;;;;5163309;28;8819;-74
2022/10/18 01:58:46;;;;;;;;;10.20;10.20;;;;;;;;5147410;28;8819;-74
2022/10/18 02:01:41;;;;;;;;;10.00;10.00;;;;;;;;5164398;28;8819;-75
2022/10/18 02:04:27;;;;;;;;;11.00;11.00;;;;;;;;5153280;28;8813;-78
2022/10/18 02:07:21;;;;;;;;;9.00;9.00;;;;;;;;5163372;28;8819;-78
2022/10/18 02:10:09;;;;;;;;;14.80;14.60;;;;;;;;5153368;28;8799;-76
2022/10/18 02:12:41;;;;;;;;;10.80;10.80;;;;;;;;5162836;28;8795;-76
2022/10/18 02:15:15;;;;;;;;;6.40;6.40;;;;;;;;5162927;28;8804;-75
2022/10/18 02:18:07;;;;;;;;;13.60;13.20;;;;;;;;5142944;28;8866;-74
2022/10/18 02:20:39;;;;;;;;;19.80;19.80;;;;;;;;5126879;28;8846;-74
2022/10/18 02:23:13;;;;;;;;;31.60;30.60;;;;;;;;5135897;28;8791;-75
2022/10/18 02:25:44;;;;;;;;;20.60;20.60;;;;;;;;5146279;28;8852;-75
2022/10/18 02:28:15;;;;;;;;;12.20;12.20;;;;;;;;5146777;28;8965;-74
2022/10/18 02:31:11;;;;;;;;;10.00;10.00;;;;;;;;5160344;28;8881;-75
2022/10/18 02:33:45;;;;;;;;;12.60;12.60;;;;;;;;5147864;28;8819;-74
2022/10/18 02:36:19;;;;;;;;;17.20;17.20;;;;;;;;5145953;28;8945;-75
2022/10/18 02:39:13;;;;;;;;;9.60;9.00;;;;;;;;5152643;28;8807;-75
2022/10/18 02:41:45;;;;;;;;;12.40;12.40;;;;;;;;5146528;28;8934;-74
2022/10/18 02:44:16;;;;;;;;;22.20;21.80;;;;;;;;5163212;28;8906;-72
2022/10/18 02:46:48;;;;;;;;;10.60;10.40;;;;;;;;5163475;28;8819;-74
2022/10/18 02:49:19;;;;;;;;;10.60;10.60;;;;;;;;5161349;28;8815;-75
2022/10/18 02:51:50;;;;;;;;;17.20;17.20;;;;;;;;5162288;28;9448;-74
2022/10/18 02:54:22;;;;;;;;;19.60;19.60;;;;;;;;5162545;28;9527;-74
2022/10/18 02:56:53;;;;;;;;;16.40;16.00;;;;;;;;5163548;28;9601;-74
2022/10/18 02:59:24;;;;;;;;;14.80;14.80;;;;;;;;5162537;28;9681;-74
2022/10/18 03:01:55;;;;;;;;;17.00;16.80;;;;;;;;5178834;28;8849;-73
2022/10/18 03:04:26;;;;;;;;;15.00;15.00;;;;;;;;5162640;28;9471;-72
2022/10/18 03:06:58;;;;;;;;;51.20;41.00;;;;;;;;5178550;28;8803;-74
2022/10/18 03:09:48;;;;;;;;;18.80;16.20;;;;;;;;5162194;28;8804;-72
2022/10/18 03:12:19;;;;;;;;;10.00;10.00;;;;;;;;5178560;28;9514;-72
2022/10/18 03:14:50;;;;;;;;;14.60;14.60;;;;;;;;5178168;28;8776;-73
2022/10/18 03:17:21;;;;;;;;;10.00;10.00;;;;;;;;5162087;28;8816;-75
2022/10/18 03:20:11;;;;;;;;;12.20;12.20;;;;;;;;5163732;28;8764;-75
2022/10/18 03:22:42;;;;;;;;;10.25;10.25;;;;;;;;5163657;28;9482;-74
2022/10/18 03:25:13;;;;;;;;;7.20;7.20;;;;;;;;5163924;28;8872;-74
2022/10/18 03:27:44;;;;;;;;;10.00;10.00;;;;;;;;5165777;28;8787;-72
2022/10/18 03:30:15;;;;;;;;;18.20;17.40;;;;;;;;5165823;28;8802;-74
2022/10/18 03:32:46;;;;;;;;;28.60;28.60;;;;;;;;5149436;28;8823;-73
2022/10/18 03:35:17;;;;;;;;;14.60;14.60;;;;;;;;5165290;28;8818;-73
2022/10/18 03:37:48;;;;;;;;;14.75;14.75;;;;;;;;5165113;28;8819;-73
2022/10/18 03:40:19;;;;;;;;;55.60;45.60;;;;;;;;5165768;28;8862;-73
2022/10/18 03:42:50;;;;;;;;;72.40;57.40;;;;;;;;5165612;28;8795;-73
2022/10/18 03:45:21;;;;;;;;;58.25;45.50;;;;;;;;5166893;28;8852;-74
2022/10/18 03:47:52;;;;;;;;;20.60;20.60;;;;;;;;5165343;28;9654;-74
2022/10/18 03:50:42;;;;;;;;;11.60;11.60;;;;;;;;5165242;28;8830;-74
2022/10/18 03:53:13;;;;;;;;;12.40;12.40;;;;;;;;5181733;28;8787;-73
2022/10/18 03:55:49;;;;;;;;;15.20;14.20;;;;;;;;5165218;28;8803;-73
2022/10/18 03:58:20;;;;;;;;;10.20;10.20;;;;;;;;5165100;28;8854;-73
2022/10/18 04:00:52;;;;;;;;;17.20;17.20;;;;;;;;5148929;28;8941;-72
2022/10/18 04:03:23;;;;;;;;;17.20;17.20;;;;;;;;5148867;28;8862;-73
2022/10/18 04:05:54;;;;;;;;;15.80;15.80;;;;;;;;5165311;28;8799;-73
2022/10/18 04:08:25;;;;;;;;;16.00;16.00;;;;;;;;5148936;28;8810;-72
2022/10/18 04:10:56;;;;;;;;;25.00;25.00;;;;;;;;5164430;28;8843;-74
2022/10/18 04:13:27;;;;;;;;;25.40;25.40;;;;;;;;5132909;28;8791;-74
2022/10/18 04:15:58;;;;;;;;;18.40;18.40;;;;;;;;5164693;28;8823;-77
2022/10/18 04:18:30;;;;;;;;;16.40;15.80;;;;;;;;5180902;28;8909;-75
2022/10/18 04:21:01;;;;;;;;;29.20;29.20;;;;;;;;5165065;28;8795;-77
2022/10/18 04:23:32;;;;;;;;;20.00;19.00;;;;;;;;5148650;28;8873;-77
2022/10/18 04:26:04;;;;;;;;;20.20;20.20;;;;;;;;5164554;28;8835;-78
2022/10/18 04:28:38;;;;;;;;;10.20;10.20;;;;;;;;5165088;28;8799;-80
2022/10/18 04:31:10;;;;;;;;;49.80;43.00;;;;;;;;5180802;28;8838;-74
2022/10/18 04:33:41;;;;;;;;;26.60;26.60;;;;;;;;5148138;28;8827;-74
2022/10/18 04:36:12;;;;;;;;;19.80;19.20;;;;;;;;5180926;28;8865;-75
2022/10/18 04:38:44;;;;;;;;;20.80;20.80;;;;;;;;5165537;28;8842;-76
2022/10/18 04:41:15;;;;;;;;;43.40;39.40;;;;;;;;5164129;28;8799;-75
2022/10/18 04:43:46;;;;;;;;;49.60;42.20;;;;;;;;5164501;28;8948;-74
2022/10/18 04:46:17;;;;;;;;;21.60;21.00;;;;;;;;5165245;28;8822;-75
2022/10/18 04:48:48;;;;;;;;;18.40;17.20;;;;;;;;5147323;28;8811;-77
2022/10/18 04:51:20;;;;;;;;;29.40;27.80;;;;;;;;5146385;28;8819;-80
2022/10/18 04:53:51;;;;;;;;;28.60;28.60;;;;;;;;5180242;28;8930;-78
2022/10/18 04:56:40;;;;;;;;;26.20;26.20;;;;;;;;5163976;28;8854;-76
2022/10/18 04:59:11;;;;;;;;;29.80;29.80;;;;;;;;5164080;28;8827;-76
2022/10/18 05:02:01;;;;;;;;;21.20;21.00;;;;;;;;5163909;28;8862;-76
2022/10/18 05:04:32;;;;;;;;;28.20;27.20;;;;;;;;5163930;28;8787;-75
2022/10/18 05:07:05;;;;;;;;;26.40;25.60;;;;;;;;5163720;28;8810;-75
2022/10/18 05:09:36;;;;;;;;;30.00;28.40;;;;;;;;5164493;28;9593;-75
2022/10/18 05:12:07;;;;;;;;;24.80;24.80;;;;;;;;5163753;28;8780;-74
2022/10/18 05:14:41;;;;;;;;;20.80;20.80;;;;;;;;5163529;28;8811;-77
2022/10/18 05:17:31;;;;;;;;;23.20;20.40;;;;;;;;5163370;28;8838;-79
2022/10/18 05:20:03;;;;;;;;;20.60;20.60;;;;;;;;5164421;28;8795;-78
2022/10/18 05:22:34;;;;;;;;;16.40;16.40;;;;;;;;5163283;28;8795;-77
2022/10/18 05:25:06;;;;;;;;;22.80;21.80;;;;;;;;5163325;28;8808;-74
2022/10/18 05:27:38;;;;;;;;;19.60;19.00;;;;;;;;5147236;28;8807;-74
2022/10/18 05:30:09;;;;;;;;;16.00;16.00;;;;;;;;5163391;28;8803;-74
2022/10/18 05:32:40;;;;;;;;;23.20;22.00;;;;;;;;5162922;28;8806;-74
2022/10/18 05:35:11;;;;;;;;;25.00;24.20;;;;;;;;5147145;28;8830;-77
2022/10/18 05:37:43;;;;;;;;;25.20;25.20;;;;;;;;5163551;28;8819;-77
2022/10/18 05:40:14;;;;;;;;;19.60;19.60;;;;;;;;5179459;28;8800;-77
2022/10/18 05:42:45;;;;;;;;;57.60;48.60;;;;;;;;5163230;28;8945;-76
2022/10/18 05:45:16;;;;;;;;;35.00;33.20;;;;;;;;5147211;28;9518;-76
2022/10/18 05:47:47;;;;;;;;;25.40;25.40;;;;;;;;5162745;28;8993;-77
2022/10/18 05:50:18;;;;;;;;;19.00;18.60;;;;;;;;5161252;28;8942;-76
2022/10/18 05:52:49;;;;;;;;;27.80;27.60;;;;;;;;5161449;28;8861;-77
2022/10/18 05:55:20;;;;;;;;;31.20;29.60;;;;;;;;5177915;28;8799;-77
2022/10/18 05:57:51;;;;;;;;;32.40;31.40;;;;;;;;5129207;28;8838;-79
2022/10/18 06:00:22;;;;;;;;;19.80;19.40;;;;;;;;5162306;28;8825;-77
2022/10/18 06:02:54;;;;;;;;;33.00;32.40;;;;;;;;5162205;28;8799;-76
2022/10/18 06:05:25;;;;;;;;;44.00;38.80;;;;;;;;5144999;28;9541;-78
2022/10/18 06:07:57;;;;;;;;;41.40;38.00;;;;;;;;5145214;28;8819;-76
2022/10/18 06:10:28;;;;;;;;;19.80;19.80;;;;;;;;5144787;28;8922;-77
2022/10/18 06:12:59;;;;;;;;;36.20;34.40;;;;;;;;5158534;28;8783;-80
2022/10/18 06:15:30;;;;;;;;;28.80;28.40;;;;;;;;5160096;28;8838;-81
2022/10/18 06:18:01;;;;;;;;;26.60;26.60;;;;;;;;5175901;28;8839;-80
2022/10/18 06:20:32;;;;;;;;;17.80;16.80;;;;;;;;5176002;28;8802;-77
2022/10/18 06:23:04;;;;;;;;;20.00;20.00;;;;;;;;5160455;28;8822;-80
2022/10/18 06:25:35;;;;;;;;;23.80;23.80;;;;;;;;5144268;28;9535;-82
2022/10/18 06:28:06;;;;;;;;;16.80;16.80;;;;;;;;5142854;28;8897;-79
2022/10/18 06:30:37;;;;;;;;;16.00;15.80;;;;;;;;5161256;28;8816;-81
2022/10/18 06:33:10;;;;;;;;;29.00;28.40;;;;;;;;5164365;28;8803;-74
2022/10/18 06:35:42;;;;;;;;;41.80;36.60;;;;;;;;5179156;28;9645;-82
2022/10/18 06:38:32;;;;;;;;;20.60;20.60;;;;;;;;5162268;28;8857;-79
2022/10/18 06:41:04;;;;;;;;;14.25;14.25;;;;;;;;5160300;28;9548;-79
2022/10/18 06:43:36;;;;;;;;;17.60;17.60;;;;;;;;5143296;28;8853;-79
2022/10/18 06:46:07;;;;;;;;;24.00;23.40;;;;;;;;5159602;28;9523;-79
2022/10/18 06:48:38;;;;;;;;;19.20;19.20;;;;;;;;5158302;28;8803;-80
2022/10/18 06:51:10;;;;;;;;;18.80;18.80;;;;;;;;5161363;28;8795;-80
2022/10/18 06:53:41;;;;;;;;;16.60;16.60;;;;;;;;5146515;28;8823;-81
2022/10/18 06:56:12;;;;;;;;;22.60;22.60;;;;;;;;5176571;28;8933;-81
2022/10/18 06:58:44;;;;;;;;;22.60;22.60;;;;;;;;5172989;28;8854;-80
2022/10/18 07:01:15;;;;;;;;;24.80;24.80;;;;;;;;5160942;28;8872;-76
2022/10/18 07:03:48;;;;;;;;;17.40;16.80;;;;;;;;5177465;28;8862;-76
2022/10/18 07:06:20;;;;;;;;;22.00;21.20;;;;;;;;5146809;28;8827;-76
2022/10/18 07:08:52;;;;;;;;;22.40;22.40;;;;;;;;5162450;28;8893;-79
2022/10/18 07:11:25;;;;;;;;;11.60;11.60;;;;;;;;5161902;28;8897;-78
2022/10/18 07:14:02;;;;;;;;;19.20;19.20;;;;;;;;5128263;28;8874;-77
2022/10/18 07:16:33;;;;;;;;;23.80;22.80;;;;;;;;5145575;28;8811;-77
2022/10/18 07:19:04;;;;;;;;;21.40;21.40;;;;;;;;5163024;28;8822;-75
2022/10/18 07:21:35;;;;;;;;;14.60;14.60;;;;;;;;5164249;28;8845;-76
2022/10/18 07:24:06;;;;;;;;;19.40;19.40;;;;;;;;5164281;28;8877;-76
2022/10/18 07:26:38;;;;;;;;;16.00;16.00;;;;;;;;5163227;28;8827;-76
2022/10/18 07:29:09;;;;;;;;;11.40;11.40;;;;;;;;5163469;28;8814;-75
2022/10/18 07:31:40;;;;;;;;;25.80;25.80;;;;;;;;5163750;28;8846;-75
2022/10/18 07:34:12;;;;;;;;;35.80;34.60;;;;;;;;5179429;28;8886;-78
2022/10/18 07:36:43;;;;;;;;;35.20;33.20;;;;;;;;5164282;28;8819;-78
2022/10/18 07:39:14;;;;;;;;;16.80;16.60;;;;;;;;5163386;28;8865;-75
2022/10/18 07:41:45;;;;;;;;;17.20;17.20;;;;;;;;5166487;28;9593;-80
2022/10/18 07:44:16;;;;;;;;;20.60;20.00;;;;;;;;5165448;28;8779;-75
2022/10/18 07:46:47;;;;;;;;;28.20;28.00;;;;;;;;5165155;28;8815;-77
2022/10/18 07:49:18;;;;;;;;;25.00;25.00;;;;;;;;5166591;28;8809;-77
2022/10/18 07:51:49;;;;;;;;;32.25;31.50;;;;;;;;5166237;28;8815;-78
2022/10/18 07:54:21;;;;;;;;;32.20;31.40;;;;;;;;5165376;28;10810;-78
2022/10/18 07:56:52;;;;;;;;;37.20;34.20;;;;;;;;5165441;28;8810;-75
2022/10/18 07:59:23;;;;;;;;;30.80;30.80;;;;;;;;5181510;28;9701;-79
2022/10/18 08:01:54;;;;;;;;;18.20;18.20;;;;;;;;5147243;28;8815;-80
2022/10/18 08:04:25;;;;;;;;;15.50;15.50;;;;;;;;5164733;28;8923;-74
2022/10/18 08:06:56;;;;;;;;;20.00;20.00;;;;;;;;5179333;28;8857;-80
2022/10/18 08:09:27;;;;;;;;;25.40;24.40;;;;;;;;5165341;28;10976;-79
2022/10/18 08:11:58;;;;;;;;;18.20;18.00;;;;;;;;5162595;28;8811;-81
2022/10/18 08:14:29;;;;;;;;;15.00;15.00;;;;;;;;5163417;28;8815;-78
2022/10/18 08:17:00;;;;;;;;;17.67;17.67;;;;;;;;5163358;28;8875;-79
2022/10/18 08:19:49;;;;;;;;;18.40;18.40;;;;;;;;5164540;28;9620;-78
2022/10/18 08:22:21;;;;;;;;;9.25;9.25;;;;;;;;5148154;28;8799;-79
2022/10/18 08:24:52;;;;;;;;;14.50;14.50;;;;;;;;5164839;28;8822;-80
2022/10/18 08:27:41;;;;;;;;;16.00;16.00;;;;;;;;5178005;28;8853;-73
2022/10/18 08:30:13;;;;;;;;;14.25;13.75;;;;;;;;5163473;28;8815;-76
2022/10/18 08:32:44;;;;;;;;;20.60;20.60;;;;;;;;5165037;28;8807;-77
2022/10/18 08:35:15;;;;;;;;;18.50;18.50;;;;;;;;5131435;28;8792;-78
2022/10/18 08:37:47;;;;;;;;;20.20;20.20;;;;;;;;5164056;28;10103;-77
2022/10/18 08:40:19;;;;;;;;;19.50;19.00;;;;;;;;5148579;28;8787;-80
2022/10/18 08:42:56;;;;;;;;;15.60;15.60;;;;;;;;5164595;28;8812;-77
2022/10/18 08:45:28;;;;;;;;;11.50;11.50;;;;;;;;5164263;28;8803;-77
2022/10/18 08:47:59;;;;;;;;;13.75;13.75;;;;;;;;5146599;28;8799;-76
2022/10/18 08:50:34;;;;;;;;;7.75;7.75;;;;;;;;5146622;28;8799;-76
2022/10/18 08:53:18;;;;;;;;;5.00;5.00;;;;;;;;5160836;28;8803;-74
2022/10/18 08:55:53;;;;;;;;;11.50;11.50;;;;;;;;5162540;28;8849;-79
2022/10/18 08:58:26;;;;;;;;;6.00;6.00;;;;;;;;5146377;28;8857;-78
2022/10/18 09:01:15;;;;;;;;;11.00;11.00;;;;;;;;5162736;28;9588;-80
2022/10/18 09:04:20;;;;;;;;;2.50;2.50;;;;;;;;5161592;28;8807;-80
2022/10/18 09:07:07;;;;;;;;;3.25;3.25;;;;;;;;5161441;28;9539;-77
2022/10/18 09:09:42;;;;;;;;;10.75;10.75;;;;;;;;5146557;28;9629;-77
2022/10/18 09:12:28;;;;;;;;;12.75;12.50;;;;;;;;5162677;28;8871;-81
2022/10/18 09:15:05;;;;;;;;;24.60;23.80;;;;;;;;5162470;28;8803;-80
2022/10/18 09:17:39;;;;;;;;;5.75;5.75;;;;;;;;5163832;28;8843;-80
2022/10/18 09:20:36;;;;;;;;;6.75;6.75;;;;;;;;5163802;28;8819;-79
2022/10/18 09:23:32;;;;;;;;;7.50;7.50;;;;;;;;5159986;28;8847;-78
2022/10/18 09:26:09;;;;;;;;;26.60;26.60;;;;;;;;5146059;28;8807;-78
2022/10/18 09:28:40;;;;;;;;;6.00;6.00;;;;;;;;5146246;28;8827;-76
2022/10/18 09:31:17;;;;;;;;;28.80;28.00;;;;;;;;5146219;28;8850;-81
2022/10/18 09:34:00;;;;;;;;;14.25;14.25;;;;;;;;5146656;28;8826;-78
2022/10/18 09:36:34;;;;;;;;;26.20;25.80;;;;;;;;5144720;28;8866;-79
2022/10/18 09:39:13;;;;;;;;;56.20;47.00;;;;;;;;5178407;28;8822;-78
2022/10/18 09:42:04;;;;;;;;;13.00;13.00;;;;;;;;5159843;28;8807;-78
2022/10/18 09:45:02;;;;;;;;;8.75;8.75;;;;;;;;5161460;28;8795;-79
2022/10/18 09:47:41;;;;;;;;;6.00;6.00;;;;;;;;5178395;28;8799;-79
2022/10/18 09:50:35;;;;;;;;;8.00;8.00;;;;;;;;5161925;28;8831;-82
2022/10/18 09:53:14;;;;;;;;;10.00;9.25;;;;;;;;5146557;28;8811;-79
2022/10/18 09:56:16;;;;;;;;;6.75;6.75;;;;;;;;5146629;28;9493;-80
2022/10/18 09:58:48;;;;;;;;;23.20;23.20;;;;;;;;5160653;28;8941;-80
2022/10/18 10:01:37;;;;;;;;;40.20;36.80;;;;;;;;5162827;28;8866;-81
2022/10/18 10:04:08;;;;;;;;;16.00;16.00;;;;;;;;5170762;28;8933;-80
2022/10/18 10:06:47;;;;;;;;;3.00;3.00;;;;;;;;5168549;28;8807;-80
2022/10/18 10:09:30;;;;;;;;;2.00;2.00;;;;;;;;5152493;28;8942;-78
2022/10/18 10:12:01;;;;;;;;;2.00;2.00;;;;;;;;5148762;28;8807;-78
2022/10/18 10:14:41;;;;;;;;;3.00;3.00;;;;;;;;5164696;28;9509;-78
2022/10/18 10:17:24;;;;;;;;;0.00;0.00;;;;;;;;5179407;28;8807;-79
2022/10/18 10:20:25;;;;;;;;;1.75;1.75;;;;;;;;5163818;28;8917;-78
2022/10/18 10:23:04;;;;;;;;;2.00;2.00;;;;;;;;5147604;28;8803;-78
2022/10/18 10:26:03;;;;;;;;;2.25;2.25;;;;;;;;5164034;28;8806;-75
2022/10/18 10:28:53;;;;;;;;;0.00;0.00;;;;;;;;5177428;28;8799;-74
2022/10/18 10:31:26;;;;;;;;;3.75;3.75;;;;;;;;5162864;28;8783;-76
2022/10/18 10:34:15;;;;;;;;;10.25;9.75;;;;;;;;5162941;28;8792;-76
2022/10/18 10:36:47;;;;;;;;;2.33;2.33;;;;;;;;5164994;28;8791;-77
2022/10/18 10:39:19;;;;;;;;;5.00;5.00;;;;;;;;5166026;28;8798;-73
2022/10/18 10:41:52;;;;;;;;;18.75;16.50;;;;;;;;5168240;28;8779;-73
2022/10/18 10:44:25;;;;;;;;;32.80;30.00;;;;;;;;5183046;28;8787;-77
2022/10/18 10:46:56;;;;;;;;;27.80;27.00;;;;;;;;5167247;28;8837;-74
2022/10/18 10:49:46;;;;;;;;;21.00;19.00;;;;;;;;5166765;28;8799;-74
2022/10/18 10:52:19;;;;;;;;;26.80;26.80;;;;;;;;5167862;28;8845;-75
2022/10/18 10:54:49;;;;;;;;;28.00;27.20;;;;;;;;5167100;28;8795;-75
2022/10/18 10:57:25;;;;;;;;;21.20;20.20;;;;;;;;5155668;28;8980;-75
2022/10/18 11:00:02;;;;;;;;;20.20;20.20;;;;;;;;5162904;28;9565;-74
2022/10/18 11:03:03;;;;;;;;;6.00;6.00;;;;;;;;5158363;28;8805;-75
2022/10/18 11:05:56;;;;;;;;;10.00;10.00;;;;;;;;5162364;28;8797;-75
2022/10/18 11:08:45;;;;;;;;;3.00;3.00;;;;;;;;5172764;28;8803;-75
2022/10/18 11:11:27;;;;;;;;;1.00;1.00;;;;;;;;5166526;28;8791;-75
2022/10/18 11:13:58;;;;;;;;;0.75;0.75;;;;;;;;5182843;28;8814;-71
2022/10/18 11:16:34;;;;;;;;;0.00;0.00;;;;;;;;5166516;28;8799;-75
2022/10/18 11:19:26;;;;;;;;;0.75;0.75;;;;;;;;5166701;28;8834;-75
2022/10/18 11:21:58;;;;;;;;;2.50;2.50;;;;;;;;5166092;28;8865;-73
2022/10/18 11:24:29;;;;;;;;;1.00;1.00;;;;;;;;5164761;28;8835;-74
2022/10/18 11:27:13;;;;;;;;;2.00;2.00;;;;;;;;5148033;28;8799;-73
2022/10/18 11:29:53;;;;;;;;;8.00;7.25;;;;;;;;5145265;28;8793;-75
2022/10/18 11:32:40;;;;;;;;;4.75;4.75;;;;;;;;5165679;28;8800;-75
2022/10/18 11:35:11;;;;;;;;;6.75;6.75;;;;;;;;5165710;28;9510;-76
2022/10/18 11:38:00;;;;;;;;;6.75;6.75;;;;;;;;5164919;28;8858;-79
2022/10/18 11:40:39;;;;;;;;;9.67;8.67;;;;;;;;5162892;28;8803;-75
2022/10/18 11:43:10;;;;;;;;;4.50;4.50;;;;;;;;5164432;28;11474;-77
2022/10/18 11:45:54;;;;;;;;;4.00;4.00;;;;;;;;5164180;28;8858;-77
2022/10/18 11:48:47;;;;;;;;;2.75;2.75;;;;;;;;5161746;28;8799;-76
2022/10/18 11:51:37;;;;;;;;;1.50;1.50;;;;;;;;5177059;28;8843;-85
2022/10/18 11:54:11;;;;;;;;;1.00;1.00;;;;;;;;5160711;28;8831;-77
2022/10/18 11:56:41;;;;;;;;;0.50;0.50;;;;;;;;5161137;28;8790;-77
2022/10/18 11:59:36;;;;;;;;;1.00;1.00;;;;;;;;5143031;28;8802;-77
2022/10/18 12:02:24;;;;;;;;;0.25;0.25;;;;;;;;5146710;28;12311;-77
2022/10/18 12:04:57;;;;;;;;;2.00;2.00;;;;;;;;5147167;28;8791;-77
2022/10/18 12:07:36;;;;;;;;;4.75;4.75;;;;;;;;5147137;28;8812;-75
2022/10/18 12:10:08;;;;;;;;;1.50;1.00;;;;;;;;5146421;28;8838;-79
2022/10/18 12:13:00;;;;;;;;;1.25;1.25;;;;;;;;5162392;28;8810;-77
2022/10/18 12:15:50;;;;;;;;;0.75;0.75;;;;;;;;5163406;28;8795;-76
2022/10/18 12:18:24;;;;;;;;;2.00;2.00;;;;;;;;5164025;28;8851;-76
2022/10/18 12:20:57;;;;;;;;;0.00;0.00;;;;;;;;5140245;28;9653;-80
2022/10/18 12:23:51;;;;;;;;;1.00;1.00;;;;;;;;5159874;28;8875;-77
2022/10/18 12:26:22;;;;;;;;;0.00;0.00;;;;;;;;5146594;28;8815;-75
2022/10/18 12:29:03;;;;;;;;;0.00;0.00;;;;;;;;5163220;28;8847;-78
2022/10/18 12:31:38;;;;;;;;;1.00;1.00;;;;;;;;5165380;28;8807;-76
2022/10/18 12:34:22;;;;;;;;;1.00;1.00;;;;;;;;5147101;28;8834;-77
2022/10/18 12:37:13;;;;;;;;;2.50;2.50;;;;;;;;5145528;28;8784;-78
2022/10/18 12:40:06;;;;;;;;;3.50;3.50;;;;;;;;5147238;28;8819;-78
2022/10/18 12:42:56;;;;;;;;;2.25;2.25;;;;;;;;5164829;28;8771;-74
2022/10/18 12:45:34;;;;;;;;;3.50;3.50;;;;;;;;5146605;28;8815;-76
2022/10/18 12:48:06;;;;;;;;;1.25;1.25;;;;;;;;5146458;28;8799;-74
2022/10/18 12:50:39;;;;;;;;;1.00;1.00;;;;;;;;5164049;28;8881;-74
2022/10/18 12:53:24;;;;;;;;;1.00;1.00;;;;;;;;5162934;28;8795;-75
2022/10/18 12:56:28;;;;;;;;;2.00;2.00;;;;;;;;5155705;28;8811;-75
2022/10/18 12:59:14;;;;;;;;;1.50;1.50;;;;;;;;5146420;28;9627;-76
2022/10/18 13:01:51;;;;;;;;;0.25;0.25;;;;;;;;5144615;28;8819;-74
2022/10/18 13:04:32;;;;;;;;;0.00;0.00;;;;;;;;5148843;28;9554;-75
2022/10/18 13:07:09;;;;;;;;;9.00;8.00;;;;;;;;5146323;28;8811;-75
2022/10/18 13:09:43;;;;;;;;;7.60;6.80;;;;;;;;5176249;28;8943;-78
2022/10/18 13:12:14;;;;;;;;;10.40;10.40;;;;;;;;5162499;28;8796;-79
2022/10/18 13:15:05;;;;;;;;;8.25;8.25;;;;;;;;5163613;28;8776;-81
2022/10/18 13:17:46;;;;;;;;;7.80;7.80;;;;;;;;5145648;28;11518;-76
2022/10/18 13:20:38;;;;;;;;;4.75;4.75;;;;;;;;5178361;28;8959;-75
2022/10/18 13:23:18;;;;;;;;;4.40;4.40;;;;;;;;5162419;28;8945;-76
2022/10/18 13:25:48;;;;;;;;;10.00;10.00;;;;;;;;5163360;28;9562;-76
2022/10/18 13:28:22;;;;;;;;;11.25;11.25;;;;;;;;5130325;28;8796;-78
2022/10/18 13:31:03;;;;;;;;;7.60;7.20;;;;;;;;5146867;28;11510;-76
2022/10/18 13:33:37;;;;;;;;;13.20;13.20;;;;;;;;5163363;28;8929;-77
2022/10/18 13:36:19;;;;;;;;;8.40;8.40;;;;;;;;5147612;28;8776;-77
2022/10/18 13:39:02;;;;;;;;;9.80;9.80;;;;;;;;5144567;28;8839;-75
2022/10/18 13:41:39;;;;;;;;;12.40;12.00;;;;;;;;5141856;28;9505;-72
2022/10/18 13:44:30;;;;;;;;;22.60;22.60;;;;;;;;5176229;28;9530;-73
2022/10/18 13:47:01;;;;;;;;;26.20;26.00;;;;;;;;5164372;28;8783;-74
2022/10/18 13:49:35;;;;;;;;;33.00;32.40;;;;;;;;5147832;28;9566;-72
2022/10/18 13:52:25;;;;;;;;;32.40;31.00;;;;;;;;5145479;28;9587;-74
2022/10/18 13:55:01;;;;;;;;;45.60;38.40;;;;;;;;5159355;28;8826;-73
2022/10/18 13:57:48;;;;;;;;;42.80;39.00;;;;;;;;5145646;28;8877;-73
2022/10/18 14:00:22;;;;;;;;;33.20;30.80;;;;;;;;5144471;28;8819;-73
2022/10/18 14:03:30;;;;;;;;;28.40;27.60;;;;;;;;5147290;28;8830;-74
2022/10/18 14:06:01;;;;;;;;;34.60;33.60;;;;;;;;5146442;28;8810;-73
2022/10/18 14:09:01;;;;;;;;;36.60;35.60;;;;;;;;5161954;28;8806;-73
2022/10/18 14:11:39;;;;;;;;;46.80;40.60;;;;;;;;5134341;28;8825;-72
2022/10/18 14:14:13;;;;;;;;;55.60;47.00;;;;;;;;5161744;28;8795;-73
2022/10/18 14:16:48;;;;;;;;;57.20;46.40;;;;;;;;5160914;28;8798;-72
2022/10/18 14:19:33;;;;;;;;;61.20;50.60;;;;;;;;5175969;28;8821;-75
2022/10/18 14:22:16;;;;;;;;;48.00;41.40;;;;;;;;5177169;28;8803;-74
2022/10/18 14:24:50;;;;;;;;;47.40;41.80;;;;;;;;5145733;28;8808;-74
2022/10/18 14:27:22;;;;;;;;;44.40;40.60;;;;;;;;5142643;28;8893;-72
2022/10/18 14:30:12;;;;;;;;;21.00;20.20;;;;;;;;5147169;28;8811;-74
2022/10/18 14:32:44;;;;;;;;;12.60;11.60;;;;;;;;5143860;28;8807;-72
2022/10/18 14:35:34;;;;;;;;;13.00;12.40;;;;;;;;5163747;28;8912;-72
2022/10/18 14:38:12;;;;;;;;;17.00;16.20;;;;;;;;5162294;28;8893;-72
2022/10/18 14:40:43;;;;;;;;;22.60;21.20;;;;;;;;5147034;28;8803;-71
2022/10/18 14:43:17;;;;;;;;;47.80;42.00;;;;;;;;5128349;28;8799;-72
2022/10/18 14:45:48;;;;;;;;;43.40;39.80;;;;;;;;5159574;28;8861;-72
2022/10/18 14:48:38;;;;;;;;;28.40;28.40;;;;;;;;5161345;28;8787;-72
2022/10/18 14:51:13;;;;;;;;;16.20;16.20;;;;;;;;5159653;28;8827;-73
2022/10/18 14:53:45;;;;;;;;;11.80;11.80;;;;;;;;5160684;28;8811;-71
2022/10/18 14:56:38;;;;;;;;;13.00;12.60;;;;;;;;5147645;28;9535;-72
2022/10/18 14:59:18;;;;;;;;;20.00;20.00;;;;;;;;5162549;28;8991;-72
2022/10/18 15:02:13;;;;;;;;;11.60;11.60;;;;;;;;5162074;28;8859;-71
2022/10/18 15:05:08;;;;;;;;;27.40;26.40;;;;;;;;5162706;28;8783;-70
2022/10/18 15:07:39;;;;;;;;;22.40;21.40;;;;;;;;5146446;28;8818;-70
2022/10/18 15:10:20;;;;;;;;;18.40;16.60;;;;;;;;5162530;28;8815;-70
2022/10/18 15:12:52;;;;;;;;;15.20;15.00;;;;;;;;5145980;28;8800;-70
2022/10/18 15:15:26;;;;;;;;;18.00;18.00;;;;;;;;5161897;28;9582;-69
2022/10/18 15:17:57;;;;;;;;;16.60;16.40;;;;;;;;5161833;28;8811;-70
2022/10/18 15:21:05;;;;;;;;;17.80;17.80;;;;;;;;5163192;28;8827;-70
2022/10/18 15:23:37;;;;;;;;;23.20;22.00;;;;;;;;5164931;28;8783;-71
2022/10/18 15:26:12;;;;;;;;;33.00;27.40;;;;;;;;5166106;28;8795;-71
2022/10/18 15:28:52;;;;;;;;;45.40;38.40;;;;;;;;5165996;28;8800;-74
2022/10/18 15:31:48;;;;;;;;;51.20;42.60;;;;;;;;5140966;28;8837;-73
2022/10/18 15:34:25;;;;;;;;;50.60;42.20;;;;;;;;5147656;28;8852;-73